sensor_id;sensor_type;location;lat;lon;timestamp;pressure;altitude;pressure_sealevel;temperature;humidity
49801;BME280;35698;50.232;30.540;2023-02-18T00:00:17;99986.20;;;3.11;100.00
49801;BME280;35698;50.232;30.540;2023-02-18T00:01:22;99984.72;;;3.02;100.00
49801;BME280;35698;50.232;30.540;2023-02-18T00:02:33;99993.98;;;3.12;100.00
49801;BME280;35698;50.232;30.540;2023-02-18T00:03:37;99976.89;;;3.02;100.00
49801;BME280;35698;50.232;30.540;2023-02-18T00:04:44;99979.51;;;3.02;100.00
49801;BME280;35698;50.232;30.540;2023-02-18T00:05:47;99977.70;;;3.04;100.00
49801;BME280;35698;50.232;30.540;2023-02-18T00:06:58;99978.23;;;3.15;100.00
49801;BME280;35698;50.232;30.540;2023-02-18T00:08:02;99976.89;;;3.02;100.00
49801;BME280;35698;50.232;30.540;2023-02-18T00:09:05;99973.43;;;3.02;100.00
49801;BME280;35698;50.232;30.540;2023-02-18T00:10:13;99971.63;;;3.04;100.00
49801;BME280;35698;50.232;30.540;2023-02-18T00:11:25;99968.64;;;3.16;100.00
49801;BME280;35698;50.232;30.540;2023-02-18T00:12:29;99966.36;;;3.05;100.00
49801;BME280;35698;50.232;30.540;2023-02-18T00:13:32;99964.70;;;3.03;100.00
49801;BME280;35698;50.232;30.540;2023-02-18T00:14:37;99965.51;;;3.05;100.00
49801;BME280;35698;50.232;30.540;2023-02-18T00:15:48;99961.71;;;3.15;100.00
49801;BME280;35698;50.232;30.540;2023-02-18T00:16:52;99956.83;;;3.04;100.00
49801;BME280;35698;50.232;30.540;2023-02-18T00:17:55;99943.78;;;3.04;100.00
49801;BME280;35698;50.232;30.540;2023-02-18T00:19:04;99952.41;;;3.06;100.00
49801;BME280;35698;50.232;30.540;2023-02-18T00:20:16;99945.20;;;3.14;100.00
49801;BME280;35698;50.232;30.540;2023-02-18T00:21:19;99948.19;;;3.02;100.00
49801;BME280;35698;50.232;30.540;2023-02-18T00:22:30;99940.98;;;3.10;100.00
49801;BME280;35698;50.232;30.540;2023-02-18T00:23:34;99940.45;;;2.99;100.00
49801;BME280;35698;50.232;30.540;2023-02-18T00:24:38;99937.05;;;2.97;100.00
49801;BME280;35698;50.232;30.540;2023-02-18T00:25:41;99937.94;;;2.96;100.00
49801;BME280;35698;50.232;30.540;2023-02-18T00:26:52;99933.20;;;3.09;100.00
49801;BME280;35698;50.232;30.540;2023-02-18T00:27:56;99929.22;;;2.97;100.00
49801;BME280;35698;50.232;30.540;2023-02-18T00:29:07;99917.63;;;3.06;100.00
49801;BME280;35698;50.232;30.540;2023-02-18T00:30:11;99915.41;;;2.93;100.00
49801;BME280;35698;50.232;30.540;2023-02-18T00:31:34;99912.84;;;2.92;100.00
49801;BME280;35698;50.232;30.540;2023-02-18T00:32:46;99906.59;;;2.98;100.00
49801;BME280;35698;50.232;30.540;2023-02-18T00:33:49;99903.50;;;2.85;100.00
49801;BME280;35698;50.232;30.540;2023-02-18T00:35:30;99899.19;;;2.84;100.00
49801;BME280;35698;50.232;30.540;2023-02-18T00:36:34;99886.19;;;2.82;100.00
49801;BME280;35698;50.232;30.540;2023-02-18T00:37:38;99884.63;;;2.77;100.00
49801;BME280;35698;50.232;30.540;2023-02-18T00:38:45;99882.02;;;2.77;100.00
49801;BME280;35698;50.232;30.540;2023-02-18T00:39:48;99879.41;;;2.77;100.00
49801;BME280;35698;50.232;30.540;2023-02-18T00:40:52;99869.92;;;2.74;100.00
49801;BME280;35698;50.232;30.540;2023-02-18T00:42:06;99868.73;;;2.84;100.00
49801;BME280;35698;50.232;30.540;2023-02-18T00:43:09;99863.86;;;2.74;100.00
49801;BME280;35698;50.232;30.540;2023-02-18T00:44:31;99863.91;;;2.72;100.00
49801;BME280;35698;50.232;30.540;2023-02-18T00:45:34;99857.73;;;2.75;100.00
49801;BME280;35698;50.232;30.540;2023-02-18T00:46:45;99852.13;;;2.87;100.00
49801;BME280;35698;50.232;30.540;2023-02-18T00:47:48;99856.70;;;2.80;100.00
49801;BME280;35698;50.232;30.540;2023-02-18T00:49:10;99855.74;;;2.83;100.00
49801;BME280;35698;50.232;30.540;2023-02-18T00:50:21;99848.48;;;2.92;100.00
49801;BME280;35698;50.232;30.540;2023-02-18T00:51:25;99842.80;;;2.80;100.00
49801;BME280;35698;50.232;30.540;2023-02-18T00:52:47;99835.73;;;2.83;100.00
49801;BME280;35698;50.232;30.540;2023-02-18T00:53:58;99830.11;;;2.95;100.00
49801;BME280;35698;50.232;30.540;2023-02-18T00:55:02;99830.41;;;2.86;100.00
49801;BME280;35698;50.232;30.540;2023-02-18T00:56:23;99827.66;;;2.91;100.00
49801;BME280;35698;50.232;30.540;2023-02-18T00:57:35;99815.86;;;3.06;100.00
49801;BME280;35698;50.232;30.540;2023-02-18T00:58:38;99816.16;;;2.96;100.00
49801;BME280;35698;50.232;30.540;2023-02-18T00:59:42;99812.55;;;3.01;100.00
49801;BME280;35698;50.232;30.540;2023-02-18T01:00:45;99812.55;;;3.01;100.00
49801;BME280;35698;50.232;30.540;2023-02-18T01:01:56;99806.98;;;3.11;100.00
49801;BME280;35698;50.232;30.540;2023-02-18T01:02:59;99802.17;;;2.99;100.00
49801;BME280;35698;50.232;30.540;2023-02-18T01:04:03;99797.05;;;2.96;100.00
49801;BME280;35698;50.232;30.540;2023-02-18T01:05:14;99800.05;;;3.10;100.00
49801;BME280;35698;50.232;30.540;2023-02-18T01:06:18;99790.88;;;2.99;100.00
49801;BME280;35698;50.232;30.540;2023-02-18T01:07:30;99778.42;;;3.07;100.00
49801;BME280;35698;50.232;30.540;2023-02-18T01:08:34;99784.86;;;2.96;100.00
49801;BME280;35698;50.232;30.540;2023-02-18T01:09:41;99781.50;;;2.93;100.00
49801;BME280;35698;50.232;30.540;2023-02-18T01:10:46;99784.95;;;2.93;100.00
49801;BME280;35698;50.232;30.540;2023-02-18T01:11:57;99777.67;;;3.03;100.00
49801;BME280;35698;50.232;30.540;2023-02-18T01:13:01;99767.70;;;2.89;100.00
49801;BME280;35698;50.232;30.540;2023-02-18T01:14:04;99752.91;;;2.90;100.00
49801;BME280;35698;50.232;30.540;2023-02-18T01:15:10;99752.09;;;2.88;100.00
49801;BME280;35698;50.232;30.540;2023-02-18T01:16:22;99755.95;;;3.03;100.00
49801;BME280;35698;50.232;30.540;2023-02-18T01:17:25;99758.87;;;2.93;100.00
49801;BME280;35698;50.232;30.540;2023-02-18T01:18:29;99747.58;;;2.93;100.00
49801;BME280;35698;50.232;30.540;2023-02-18T01:19:33;99749.28;;;2.94;100.00
49801;BME280;35698;50.232;30.540;2023-02-18T01:20:37;99744.92;;;2.94;100.00
49801;BME280;35698;50.232;30.540;2023-02-18T01:21:49;99731.50;;;3.05;100.00
49801;BME280;35698;50.232;30.540;2023-02-18T01:22:52;99733.52;;;2.97;100.00
49801;BME280;35698;50.232;30.540;2023-02-18T01:24:03;99726.08;;;3.11;100.00
49801;BME280;35698;50.232;30.540;2023-02-18T01:25:08;99743.80;;;3.02;100.00
49801;BME280;35698;50.232;30.540;2023-02-18T01:26:20;99716.48;;;3.12;100.00
49801;BME280;35698;50.232;30.540;2023-02-18T01:27:23;99717.72;;;3.02;100.00
49801;BME280;35698;50.232;30.540;2023-02-18T01:28:27;99716.91;;;3.00;100.00
49801;BME280;35698;50.232;30.540;2023-02-18T01:29:30;99715.42;;;2.92;100.00
49801;BME280;35698;50.232;30.540;2023-02-18T01:30:42;99700.88;;;3.10;100.00
49801;BME280;35698;50.232;30.540;2023-02-18T01:31:45;99709.98;;;2.99;100.00
49801;BME280;35698;50.232;30.540;2023-02-18T01:32:48;99700.41;;;2.99;100.00
49801;BME280;35698;50.232;30.540;2023-02-18T01:33:52;99699.45;;;3.02;100.00
49801;BME280;35698;50.232;30.540;2023-02-18T01:34:55;99690.82;;;3.00;100.00
49801;BME280;35698;50.232;30.540;2023-02-18T01:36:07;99693.80;;;3.14;100.00
49801;BME280;35698;50.232;30.540;2023-02-18T01:37:12;99685.66;;;2.98;100.00
49801;BME280;35698;50.232;30.540;2023-02-18T01:38:15;99684.64;;;3.02;100.00
49801;BME280;35698;50.232;30.540;2023-02-18T01:39:18;99688.27;;;2.98;100.00
49801;BME280;35698;50.232;30.540;2023-02-18T01:40:24;99662.28;;;2.95;100.00
49801;BME280;35698;50.232;30.540;2023-02-18T01:41:36;99669.09;;;2.99;100.00
49801;BME280;35698;50.232;30.540;2023-02-18T01:42:40;99669.42;;;2.90;100.00
49801;BME280;35698;50.232;30.540;2023-02-18T01:43:44;99649.40;;;2.90;100.00
49801;BME280;35698;50.232;30.540;2023-02-18T01:46:20;99649.34;;;2.92;100.00
49801;BME280;35698;50.232;30.540;2023-02-18T01:47:31;99646.52;;;2.98;100.00
49801;BME280;35698;50.232;30.540;2023-02-18T01:48:45;99647.64;;;2.91;100.00
49801;BME280;35698;50.232;30.540;2023-02-18T01:49:55;99642.89;;;3.02;100.00
49801;BME280;35698;50.232;30.540;2023-02-18T01:51:02;99652.70;;;2.95;100.00
49801;BME280;35698;50.232;30.540;2023-02-18T01:52:16;99641.08;;;3.04;100.00
49801;BME280;35698;50.232;30.540;2023-02-18T01:53:24;99648.55;;;2.90;100.00
49801;BME280;35698;50.232;30.540;2023-02-18T01:54:46;99640.23;;;3.04;100.00
49801;BME280;35698;50.232;30.540;2023-02-18T01:55:50;99638.91;;;2.92;100.00
49801;BME280;35698;50.232;30.540;2023-02-18T01:57:10;99638.47;;;3.04;100.00
49801;BME280;35698;50.232;30.540;2023-02-18T01:58:14;99636.08;;;2.98;100.00
49801;BME280;35698;50.232;30.540;2023-02-18T02:02:29;99619.58;;;2.98;100.00
49801;BME280;35698;50.232;30.540;2023-02-18T02:03:35;99618.89;;;2.92;100.00
49801;BME280;35698;50.232;30.540;2023-02-18T02:04:39;99610.38;;;2.87;100.00
49801;BME280;35698;50.232;30.540;2023-02-18T02:05:42;99606.81;;;2.90;100.00
49801;BME280;35698;50.232;30.540;2023-02-18T02:06:54;99605.45;;;3.03;100.00
49801;BME280;35698;50.232;30.540;2023-02-18T02:07:58;99606.70;;;2.93;100.00
49801;BME280;35698;50.232;30.540;2023-02-18T02:09:05;99600.73;;;2.89;100.00
49801;BME280;35698;50.232;30.540;2023-02-18T02:10:11;99601.59;;;2.90;100.00
49801;BME280;35698;50.232;30.540;2023-02-18T02:15:35;99600.22;;;2.80;100.00
49801;BME280;35698;50.232;30.540;2023-02-18T02:17:00;99586.16;;;2.84;100.00
49801;BME280;35698;50.232;30.540;2023-02-18T02:38:18;99526.95;;;2.39;100.00
49801;BME280;35698;50.232;30.540;2023-02-18T02:39:33;99522.22;;;2.25;100.00
49801;BME280;35698;50.232;30.540;2023-02-18T02:40:45;99516.69;;;2.35;100.00
49801;BME280;35698;50.232;30.540;2023-02-18T02:42:01;99521.42;;;2.23;100.00
49801;BME280;35698;50.232;30.540;2023-02-18T02:43:27;99510.67;;;2.33;100.00
49801;BME280;35698;50.232;30.540;2023-02-18T02:44:38;99512.80;;;2.21;100.00
49801;BME280;35698;50.232;30.540;2023-02-18T02:47:44;99506.10;;;2.14;100.00
49801;BME280;35698;50.232;30.540;2023-02-18T02:50:27;99505.46;;;2.08;100.00
49801;BME280;35698;50.232;30.540;2023-02-18T02:51:48;99501.69;;;2.16;100.00
49801;BME280;35698;50.232;30.540;2023-02-18T02:52:56;99496.73;;;2.09;100.00
49801;BME280;35698;50.232;30.540;2023-02-18T02:58:32;99480.58;;;2.24;100.00
49801;BME280;35698;50.232;30.540;2023-02-18T02:59:38;99483.55;;;2.13;100.00
49801;BME280;35698;50.232;30.540;2023-02-18T03:04:06;99468.56;;;2.20;100.00
49801;BME280;35698;50.232;30.540;2023-02-18T03:05:27;99459.56;;;2.28;100.00
49801;BME280;35698;50.232;30.540;2023-02-18T03:12:06;99457.92;;;2.26;100.00
49801;BME280;35698;50.232;30.540;2023-02-18T03:15:03;99447.82;;;2.17;100.00
49801;BME280;35698;50.232;30.540;2023-02-18T03:16:23;99448.23;;;2.29;100.00
49801;BME280;35698;50.232;30.540;2023-02-18T03:17:35;99441.77;;;2.16;100.00
49801;BME280;35698;50.232;30.540;2023-02-18T03:23:02;99454.46;;;2.25;100.00
49801;BME280;35698;50.232;30.540;2023-02-18T03:24:28;99443.08;;;2.28;100.00
49801;BME280;35698;50.232;30.540;2023-02-18T03:25:39;99441.10;;;2.35;100.00
49801;BME280;35698;50.232;30.540;2023-02-18T03:26:49;99440.06;;;2.15;100.00
49801;BME280;35698;50.232;30.540;2023-02-18T03:28:14;99434.00;;;2.15;100.00
49801;BME280;35698;50.232;30.540;2023-02-18T03:29:29;99428.23;;;2.30;100.00
49801;BME280;35698;50.232;30.540;2023-02-18T03:30:42;99426.07;;;2.18;100.00
49801;BME280;35698;50.232;30.540;2023-02-18T03:32:06;99426.81;;;2.21;100.00
49801;BME280;35698;50.232;30.540;2023-02-18T03:33:25;99419.40;;;2.34;100.00
49801;BME280;35698;50.232;30.540;2023-02-18T03:34:31;99415.27;;;2.28;100.00
49801;BME280;35698;50.232;30.540;2023-02-18T03:35:54;99404.72;;;2.32;100.00
49801;BME280;35698;50.232;30.540;2023-02-18T03:37:17;99410.78;;;2.32;100.00
49801;BME280;35698;50.232;30.540;2023-02-18T03:41:22;99390.78;;;2.33;100.00
49801;BME280;35698;50.232;30.540;2023-02-18T03:42:26;99394.07;;;2.38;100.00
49801;BME280;35698;50.232;30.540;2023-02-18T03:43:51;99392.26;;;2.40;100.00
49801;BME280;35698;50.232;30.540;2023-02-18T03:45:05;99396.22;;;2.50;100.00
49801;BME280;35698;50.232;30.540;2023-02-18T03:46:09;99395.83;;;2.37;100.00
49801;BME280;35698;50.232;30.540;2023-02-18T03:47:13;99395.77;;;2.39;100.00
49801;BME280;35698;50.232;30.540;2023-02-18T03:48:35;99377.35;;;2.43;100.00
49801;BME280;35698;50.232;30.540;2023-02-18T03:49:46;99387.20;;;2.58;100.00
49801;BME280;35698;50.232;30.540;2023-02-18T03:50:49;99379.84;;;2.46;100.00
49801;BME280;35698;50.232;30.540;2023-02-18T03:52:00;99372.41;;;2.59;100.00
49801;BME280;35698;50.232;30.540;2023-02-18T03:53:03;99372.70;;;2.51;100.00
49801;BME280;35698;50.232;30.540;2023-02-18T03:54:10;99369.19;;;2.52;100.00
49801;BME280;35698;50.232;30.540;2023-02-18T03:55:32;99361.25;;;2.55;100.00
49801;BME280;35698;50.232;30.540;2023-02-18T03:56:43;99355.91;;;2.58;100.00
49801;BME280;35698;50.232;30.540;2023-02-18T03:57:46;99367.48;;;2.51;100.00
49801;BME280;35698;50.232;30.540;2023-02-18T03:58:50;99347.48;;;2.52;100.00
49801;BME280;35698;50.232;30.540;2023-02-18T04:00:13;99339.72;;;2.50;100.00
49801;BME280;35698;50.232;30.540;2023-02-18T04:01:25;99350.48;;;2.63;100.00
49801;BME280;35698;50.232;30.540;2023-02-18T04:02:29;99348.27;;;2.54;100.00
49801;BME280;35698;50.232;30.540;2023-02-18T04:03:32;99343.00;;;2.55;100.00
49801;BME280;35698;50.232;30.540;2023-02-18T04:04:36;99337.84;;;2.54;100.00
49801;BME280;35698;50.232;30.540;2023-02-18T04:05:39;99341.23;;;2.56;100.00
49801;BME280;35698;50.232;30.540;2023-02-18T04:06:50;99319.80;;;2.70;100.00
49801;BME280;35698;50.232;30.540;2023-02-18T04:07:54;99326.33;;;2.59;100.00
49801;BME280;35698;50.232;30.540;2023-02-18T04:09:05;99324.84;;;2.74;100.00
49801;BME280;35698;50.232;30.540;2023-02-18T04:10:09;99317.44;;;2.63;100.00
49801;BME280;35698;50.232;30.540;2023-02-18T04:11:30;99316.75;;;2.60;100.00
49801;BME280;35698;50.232;30.540;2023-02-18T04:12:42;99308.53;;;2.69;100.00
49801;BME280;35698;50.232;30.540;2023-02-18T04:13:45;99311.44;;;2.61;100.00
49801;BME280;35698;50.232;30.540;2023-02-18T04:15:07;99316.53;;;2.64;100.00
49801;BME280;35698;50.232;30.540;2023-02-18T04:16:18;99311.73;;;2.76;100.00
49801;BME280;35698;50.232;30.540;2023-02-18T04:17:21;99303.38;;;2.68;100.00
49801;BME280;35698;50.232;30.540;2023-02-18T04:18:43;99304.28;;;2.67;100.00
49801;BME280;35698;50.232;30.540;2023-02-18T04:19:49;99305.86;;;2.71;100.00
49801;BME280;35698;50.232;30.540;2023-02-18T04:20:52;99305.80;;;2.72;100.00
49801;BME280;35698;50.232;30.540;2023-02-18T04:22:04;99294.09;;;2.82;100.00
49801;BME280;35698;50.232;30.540;2023-02-18T04:23:07;99295.30;;;2.74;100.00
49801;BME280;35698;50.232;30.540;2023-02-18T04:24:28;99293.67;;;2.71;100.00
49801;BME280;35698;50.232;30.540;2023-02-18T04:25:32;99298.82;;;2.73;100.00
49801;BME280;35698;50.232;30.540;2023-02-18T04:26:43;99284.56;;;2.81;100.00
49801;BME280;35698;50.232;30.540;2023-02-18T04:27:46;99281.60;;;2.69;100.00
49801;BME280;35698;50.232;30.540;2023-02-18T04:29:08;99288.45;;;2.71;100.00
49801;BME280;35698;50.232;30.540;2023-02-18T04:30:12;99278.75;;;2.75;100.00
49801;BME280;35698;50.232;30.540;2023-02-18T04:31:24;99276.55;;;2.86;100.00
49801;BME280;35698;50.232;30.540;2023-02-18T04:32:27;99268.19;;;2.78;100.00
49801;BME280;35698;50.232;30.540;2023-02-18T04:33:48;99264.01;;;2.74;100.00
49801;BME280;35698;50.232;30.540;2023-02-18T04:34:59;99257.50;;;2.84;100.00
49801;BME280;35698;50.232;30.540;2023-02-18T04:36:03;99271.71;;;2.77;100.00
49801;BME280;35698;50.232;30.540;2023-02-18T04:37:25;99266.37;;;2.80;100.00
49801;BME280;35698;50.232;30.540;2023-02-18T04:38:38;99259.86;;;2.90;100.00
49801;BME280;35698;50.232;30.540;2023-02-18T04:39:41;99271.77;;;2.75;100.00
49801;BME280;35698;50.232;30.540;2023-02-18T04:40:45;99266.37;;;2.80;100.00
49801;BME280;35698;50.232;30.540;2023-02-18T04:41:56;99265.02;;;2.91;100.00
49801;BME280;35698;50.232;30.540;2023-02-18T04:43:00;99257.50;;;2.84;100.00
49801;BME280;35698;50.232;30.540;2023-02-18T04:44:12;99247.54;;;2.93;100.00
49801;BME280;35698;50.232;30.540;2023-02-18T04:45:15;99251.63;;;2.79;100.00
49801;BME280;35698;50.232;30.540;2023-02-18T04:46:36;99244.59;;;2.81;100.00
49801;BME280;35698;50.232;30.540;2023-02-18T04:47:47;99242.26;;;2.95;100.00
49801;BME280;35698;50.232;30.540;2023-02-18T04:48:51;99241.01;;;2.83;100.00
49801;BME280;35698;50.232;30.540;2023-02-18T04:50:14;99239.25;;;2.84;100.00
49801;BME280;35698;50.232;30.540;2023-02-18T04:51:25;99238.61;;;2.99;100.00
49801;BME280;35698;50.232;30.540;2023-02-18T04:52:29;99230.38;;;2.88;100.00
49801;BME280;35698;50.232;30.540;2023-02-18T04:53:50;99229.34;;;2.92;100.00
49801;BME280;35698;50.232;30.540;2023-02-18T04:55:07;99219.30;;;3.03;100.00
49801;BME280;35698;50.232;30.540;2023-02-18T04:56:11;99220.67;;;2.91;100.00
49801;BME280;35698;50.232;30.540;2023-02-18T04:57:32;99223.28;;;2.91;100.00
49801;BME280;35698;50.232;30.540;2023-02-18T04:58:43;99220.22;;;3.02;100.00
49801;BME280;35698;50.232;30.540;2023-02-18T04:59:47;99221.45;;;2.93;100.00
49801;BME280;35698;50.232;30.540;2023-02-18T05:01:09;99213.04;;;2.87;100.00
49801;BME280;35698;50.232;30.540;2023-02-18T05:02:21;99218.33;;;3.06;100.00
49801;BME280;35698;50.232;30.540;2023-02-18T05:03:24;99214.41;;;2.95;100.00
49801;BME280;35698;50.232;30.540;2023-02-18T05:04:46;99207.30;;;2.99;100.00
49801;BME280;35698;50.232;30.540;2023-02-18T05:05:49;99199.47;;;2.99;100.00
49801;BME280;35698;50.232;30.540;2023-02-18T05:07:00;99209.31;;;3.13;100.00
49801;BME280;35698;50.232;30.540;2023-02-18T05:08:04;99192.30;;;3.04;100.00
49801;BME280;35698;50.232;30.540;2023-02-18T05:09:25;99200.77;;;3.09;100.00
49801;BME280;35698;50.232;30.540;2023-02-18T05:10:29;99199.80;;;3.12;100.00
49801;BME280;35698;50.232;30.540;2023-02-18T05:11:41;99205.46;;;3.21;100.00
49801;BME280;35698;50.232;30.540;2023-02-18T05:12:45;99196.98;;;3.16;100.00
49801;BME280;35698;50.232;30.540;2023-02-18T05:14:06;99190.00;;;3.17;100.00
49801;BME280;35698;50.232;30.540;2023-02-18T05:15:10;99194.24;;;3.19;100.00
49801;BME280;35698;50.232;30.540;2023-02-18T05:16:21;99189.40;;;3.31;100.00
49801;BME280;35698;50.232;30.540;2023-02-18T05:17:24;99184.85;;;3.15;100.00
49801;BME280;35698;50.232;30.540;2023-02-18T05:18:27;99186.55;;;3.16;100.00
49801;BME280;35698;50.232;30.540;2023-02-18T05:19:39;99185.87;;;3.32;100.00
49801;BME280;35698;50.232;30.540;2023-02-18T05:20:43;99182.69;;;3.25;100.00
49801;BME280;35698;50.232;30.540;2023-02-18T05:21:53;99179.46;;;3.39;100.00
49801;BME280;35698;50.232;30.540;2023-02-18T05:22:57;99177.98;;;3.33;100.00
49801;BME280;35698;50.232;30.540;2023-02-18T05:24:08;99153.93;;;3.45;100.00
49801;BME280;35698;50.232;30.540;2023-02-18T05:25:12;99126.48;;;3.37;100.00
49801;BME280;35698;50.232;30.540;2023-02-18T05:26:23;99124.13;;;3.49;100.00
49801;BME280;35698;50.232;30.540;2023-02-18T05:27:26;99145.53;;;3.39;100.00
49801;BME280;35698;50.232;30.540;2023-02-18T05:28:29;99145.39;;;3.42;100.00
49801;BME280;35698;50.232;30.540;2023-02-18T05:29:33;99143.38;;;3.47;100.00
49801;BME280;35698;50.232;30.540;2023-02-18T05:30:44;99155.95;;;3.57;100.00
49801;BME280;35698;50.232;30.540;2023-02-18T05:31:47;99156.81;;;3.39;100.00
49801;BME280;35698;50.232;30.540;2023-02-18T05:32:58;99152.91;;;3.48;100.00
49801;BME280;35698;50.232;30.540;2023-02-18T05:34:02;99153.22;;;3.42;100.00
49801;BME280;35698;50.232;30.540;2023-02-18T05:35:13;99153.55;;;3.53;100.00
49801;BME280;35698;50.232;30.540;2023-02-18T05:36:16;99141.72;;;3.46;100.00
49801;BME280;35698;50.232;30.540;2023-02-18T05:37:38;99158.00;;;3.51;100.00
49801;BME280;35698;50.232;30.540;2023-02-18T05:38:50;99151.92;;;3.69;100.00
49801;BME280;35698;50.232;30.540;2023-02-18T05:39:53;99147.20;;;3.58;100.00
49801;BME280;35698;50.232;30.540;2023-02-18T05:41:15;99141.91;;;3.60;100.00
49801;BME280;35698;50.232;30.540;2023-02-18T05:42:26;99135.97;;;3.75;100.00
49801;BME280;35698;50.232;30.540;2023-02-18T05:43:29;99147.55;;;3.70;100.00
49801;BME280;35698;50.232;30.540;2023-02-18T05:44:51;99140.48;;;3.72;100.00
49801;BME280;35698;50.232;30.540;2023-02-18T05:46:02;99153.05;;;3.82;100.00
49801;BME280;35698;50.232;30.540;2023-02-18T05:47:08;99149.24;;;3.71;100.00
49801;BME280;35698;50.232;30.540;2023-02-18T05:48:30;99136.26;;;3.69;100.00
49801;BME280;35698;50.232;30.540;2023-02-18T05:49:42;99139.43;;;3.76;100.00
49801;BME280;35698;50.232;30.540;2023-02-18T05:50:45;99135.27;;;3.72;100.00
49801;BME280;35698;50.232;30.540;2023-02-18T05:52:07;99131.80;;;3.71;100.00
49801;BME280;35698;50.232;30.540;2023-02-18T05:53:19;99126.08;;;3.82;100.00
49801;BME280;35698;50.232;30.540;2023-02-18T05:54:23;99123.47;;;3.82;100.00
49801;BME280;35698;50.232;30.540;2023-02-18T05:55:45;99130.60;;;3.78;100.00
49801;BME280;35698;50.232;30.540;2023-02-18T05:56:56;99134.03;;;3.98;100.00
49801;BME280;35698;50.232;30.540;2023-02-18T05:58:00;99138.70;;;3.91;100.00
49801;BME280;35698;50.232;30.540;2023-02-18T05:59:21;99135.25;;;3.90;100.00
49801;BME280;35698;50.232;30.540;2023-02-18T06:00:25;99132.34;;;3.97;100.00
49801;BME280;35698;50.232;30.540;2023-02-18T06:01:37;99123.14;;;4.07;100.00
49801;BME280;35698;50.232;30.540;2023-02-18T06:02:40;99130.98;;;4.07;100.00
49801;BME280;35698;50.232;30.540;2023-02-18T06:04:02;99121.74;;;4.00;100.00
49801;BME280;35698;50.232;30.540;2023-02-18T06:05:13;99112.23;;;4.16;100.00
49801;BME280;35698;50.232;30.540;2023-02-18T06:06:17;99108.31;;;4.07;100.00
49801;BME280;35698;50.232;30.540;2023-02-18T06:07:29;99110.25;;;4.21;100.00
49801;BME280;35698;50.232;30.540;2023-02-18T06:08:32;99109.00;;;4.11;100.00
49801;BME280;35698;50.232;30.540;2023-02-18T06:09:35;99113.78;;;4.20;100.00
49801;BME280;35698;50.232;30.540;2023-02-18T06:10:46;99107.77;;;4.35;100.00
49801;BME280;35698;50.232;30.540;2023-02-18T06:11:50;99103.03;;;4.26;100.00
49801;BME280;35698;50.232;30.540;2023-02-18T06:12:53;99109.87;;;4.28;100.00
49801;BME280;35698;50.232;30.540;2023-02-18T06:14:05;99113.84;;;4.36;100.00
49801;BME280;35698;50.232;30.540;2023-02-18T06:15:09;99116.25;;;4.23;100.00
49801;BME280;35698;50.232;30.540;2023-02-18T06:16:22;99103.16;;;4.40;100.00
49801;BME280;35698;50.232;30.540;2023-02-18T06:17:26;99115.61;;;4.35;100.00
49801;BME280;35698;50.232;30.540;2023-02-18T06:18:40;99113.54;;;4.42;100.00
49801;BME280;35698;50.232;30.540;2023-02-18T06:19:44;99116.23;;;4.40;100.00
49801;BME280;35698;50.232;30.540;2023-02-18T06:20:48;99108.00;;;4.48;100.00
49801;BME280;35698;50.232;30.540;2023-02-18T06:22:10;99112.08;;;4.53;100.00
49801;BME280;35698;50.232;30.540;2023-02-18T06:23:21;99118.38;;;4.67;100.00
49801;BME280;35698;50.232;30.540;2023-02-18T06:24:25;99114.92;;;4.49;100.00
49801;BME280;35698;50.232;30.540;2023-02-18T06:25:28;99118.61;;;4.45;100.00
49801;BME280;35698;50.232;30.540;2023-02-18T06:27:10;99123.23;;;4.57;100.00
49801;BME280;35698;50.232;30.540;2023-02-18T06:28:13;99116.31;;;4.56;100.00
49801;BME280;35698;50.232;30.540;2023-02-18T06:29:20;99099.45;;;4.61;100.00
49801;BME280;35698;50.232;30.540;2023-02-18T06:30:23;99101.84;;;4.66;100.00
49801;BME280;35698;50.232;30.540;2023-02-18T06:31:35;99091.35;;;4.83;100.00
49801;BME280;35698;50.232;30.540;2023-02-18T06:32:38;99101.90;;;4.82;100.00
49801;BME280;35698;50.232;30.540;2023-02-18T06:33:42;99094.50;;;4.90;100.00
49801;BME280;35698;50.232;30.540;2023-02-18T06:35:04;99093.17;;;4.99;100.00
49801;BME280;35698;50.232;30.540;2023-02-18T06:36:10;99094.86;;;5.00;100.00
49801;BME280;35698;50.232;30.540;2023-02-18T06:37:21;99094.13;;;5.13;100.00
49801;BME280;35698;50.232;30.540;2023-02-18T06:38:25;99089.39;;;5.04;100.00
49801;BME280;35698;50.232;30.540;2023-02-18T06:39:29;99098.69;;;5.10;100.00
49801;BME280;35698;50.232;30.540;2023-02-18T06:40:51;99096.51;;;5.18;100.00
49801;BME280;35698;50.232;30.540;2023-02-18T06:42:05;99093.28;;;5.28;100.00
49801;BME280;35698;50.232;30.540;2023-02-18T06:43:09;99095.30;;;5.08;100.00
49801;BME280;35698;50.232;30.540;2023-02-18T06:44:12;99098.93;;;5.21;100.00
49801;BME280;35698;50.232;30.540;2023-02-18T06:45:23;99096.58;;;5.32;100.00
49801;BME280;35698;50.232;30.540;2023-02-18T06:46:26;99098.09;;;5.20;100.00
49801;BME280;35698;50.232;30.540;2023-02-18T06:47:30;99091.75;;;5.24;100.00
49801;BME280;35698;50.232;30.540;2023-02-18T06:48:41;99078.94;;;5.20;100.00
49801;BME280;35698;50.232;30.540;2023-02-18T06:49:44;99089.91;;;5.11;100.00
49801;BME280;35698;50.232;30.540;2023-02-18T06:50:56;99073.27;;;5.27;100.00
49801;BME280;35698;50.232;30.540;2023-02-18T06:51:59;99076.33;;;5.20;100.00
49801;BME280;35698;50.232;30.540;2023-02-18T06:53:03;99081.03;;;5.29;100.00
49801;BME280;35698;50.232;30.540;2023-02-18T06:54:14;99069.22;;;5.38;100.00
49801;BME280;35698;50.232;30.540;2023-02-18T06:55:18;99072.09;;;5.33;100.00
49801;BME280;35698;50.232;30.540;2023-02-18T06:56:29;99067.20;;;5.43;100.00
49801;BME280;35698;50.232;30.540;2023-02-18T06:57:34;99071.92;;;5.36;100.00